Time;durP1;ratioP1;P1;durP2;ratioP2;P2;SDS_P1;SDS_P2;PMS_P1;PMS_P2;Temp;Humidity;BMP_temperature;BMP_pressure;BME280_temperature;BME280_humidity;BME280_pressure;Samples;Min_cycle;Max_cycle;Signal;HPM_P1;HPM_P2
2022/10/13 00:00:25;;;;;;;31.67;23.40;;;19.80;63.00;;;;;;5001195;28;20571;-83
2022/10/13 00:02:50;;;;;;;35.65;24.13;;;19.70;63.70;;;;;;5004565;28;20045;-81
2022/10/13 00:05:16;;;;;;;39.58;25.35;;;19.90;63.00;;;;;;5010565;28;20022;-84
2022/10/13 00:07:42;;;;;;;32.08;22.92;;;20.10;62.10;;;;;;4995190;28;20032;-84
2022/10/13 00:10:08;;;;;;;31.17;23.05;;;20.30;61.00;;;;;;5052603;28;20037;-84
2022/10/13 00:12:35;;;;;;;39.25;25.20;;;20.30;61.20;;;;;;5087471;28;20422;-84
2022/10/13 00:15:01;;;;;;;35.03;22.42;;;20.00;62.90;;;;;;5072475;28;20029;-83
2022/10/13 00:17:27;;;;;;;32.10;23.15;;;20.10;61.50;;;;;;5055180;28;20035;-85
2022/10/13 00:19:52;;;;;;;34.35;23.25;;;20.00;61.40;;;;;;5075290;28;20391;-84
2022/10/13 00:22:18;;;;;;;38.80;24.88;;;19.80;61.50;;;;;;5050737;28;20024;-85
2022/10/13 00:24:48;;;;;;;33.55;22.92;;;20.00;61.10;;;;;;5072644;28;20407;-82
2022/10/13 00:27:15;;;;;;;;;;;20.10;61.10;;;;;;5076263;28;20035;-81
2022/10/13 00:29:41;;;;;;;37.40;23.40;;;20.20;60.80;;;;;;5049743;28;19934;-84
2022/10/13 00:32:06;;;;;;;36.80;25.05;;;20.00;60.80;;;;;;5046713;28;20090;-85
2022/10/13 00:34:32;;;;;;;36.60;23.60;;;19.90;61.10;;;;;;5076644;28;20123;-85
2022/10/13 00:36:58;;;;;;;34.20;24.73;;;20.00;61.30;;;;;;5076726;28;20021;-84
2022/10/13 00:39:24;;;;;;;30.40;20.98;;;19.80;62.40;;;;;;5074761;28;20550;-82
2022/10/13 00:41:50;;;;;;;32.47;23.08;;;19.70;62.70;;;;;;5058881;28;20032;-84
2022/10/13 00:44:53;;;;;;;34.58;23.02;;;19.50;63.60;;;;;;5075167;28;20047;-82
2022/10/13 00:47:20;;;;;;;31.35;22.70;;;19.50;63.90;;;;;;5076224;28;20362;-84
2022/10/13 00:49:47;;;;;;;33.45;23.23;;;19.70;62.50;;;;;;5043304;28;20379;-85
2022/10/13 00:52:15;;;;;;;33.97;24.20;;;20.00;62.00;;;;;;5058295;28;20067;-84
2022/10/13 00:54:41;;;;;;;37.45;23.58;;;20.20;61.00;;;;;;5073983;28;20016;-84
2022/10/13 00:57:08;;;;;;;32.78;21.55;;;20.30;60.90;;;;;;5038471;28;20025;-84
2022/10/13 00:59:34;;;;;;;29.25;20.75;;;20.30;60.60;;;;;;5081330;28;20036;-82
2022/10/13 01:02:01;;;;;;;29.88;21.92;;;20.30;60.50;;;;;;5057881;28;20386;-85
2022/10/13 01:04:33;;;;;;;31.85;22.63;;;20.30;61.00;;;;;;5057720;28;20021;-82
2022/10/13 01:07:00;;;;;;;30.13;20.63;;;20.40;60.90;;;;;;5057705;28;20025;-82
2022/10/13 01:09:25;;;;;;;31.70;22.08;;;20.20;61.20;;;;;;5075834;28;20562;-83
2022/10/13 01:12:12;;;;;;;32.50;22.27;;;19.80;62.70;;;;;;5056329;28;20039;-83
2022/10/13 01:15:04;;;;;;;27.95;20.80;;;19.80;62.20;;;;;;5070781;28;20060;-85
2022/10/13 01:17:38;;;;;;;30.48;21.88;;;20.00;61.40;;;;;;5067000;28;20476;-84
2022/10/13 01:20:24;;;;;;;33.45;22.00;;;20.10;60.70;;;;;;5074954;28;20036;-83
2022/10/13 01:23:08;;;;;;;32.58;21.88;;;20.20;60.50;;;;;;5057252;28;20096;-84
2022/10/13 01:38:24;;;;;;;29.00;20.55;;;19.80;61.90;;;;;;4841120;29;20087;-83
2022/10/13 01:44:53;;;;;;;35.40;23.42;;;19.70;62.30;;;;;;4805861;29;20084;-84
2022/10/13 01:47:20;;;;;;;33.83;21.95;;;19.40;63.40;;;;;;4805957;29;20570;-84
2022/10/13 02:00:20;;;;;;;35.40;23.58;;;19.70;60.60;;;;;;4804883;29;20158;-85
2022/10/13 02:13:38;;;;;;;33.92;23.45;;;19.70;59.80;;;;;;4807345;29;20105;-86
2022/10/13 02:16:04;;;;;;;40.97;24.38;;;19.70;60.00;;;;;;4841016;29;20041;-87
2022/10/13 02:18:34;;;;;;;35.25;23.13;;;19.60;60.20;;;;;;4841651;29;20076;-86
2022/10/13 02:21:06;;;;;;;32.93;22.67;;;19.60;59.90;;;;;;4903184;29;20044;-86
2022/10/13 02:23:32;;;;;;;34.95;22.30;;;19.60;60.00;;;;;;4916181;29;20044;-85
2022/10/13 02:25:59;;;;;;;36.28;24.35;;;19.60;60.60;;;;;;4916582;29;20040;-85
2022/10/13 02:34:48;;;;;;;38.80;23.35;;;19.60;60.10;;;;;;4927446;29;20103;-85
2022/10/13 02:37:14;;;;;;;30.25;20.60;;;19.50;60.10;;;;;;4951316;29;20043;-85
2022/10/13 02:39:40;;;;;;;35.00;22.30;;;19.40;60.40;;;;;;4934607;29;20406;-85
2022/10/13 02:42:06;;;;;;;35.67;23.30;;;18.90;62.50;;;;;;4938433;28;20052;-85
2022/10/13 02:44:31;;;;;;;36.97;22.92;;;18.90;62.80;;;;;;5027467;28;20037;-83
2022/10/13 02:50:22;;;;;;;32.53;21.75;;;19.40;60.90;;;;;;5032986;28;20415;-84
2022/10/13 03:00:34;;;;;;;;;;;;;;;;;;;;;
2022/10/13 03:03:00;;;;;;;38.20;23.33;;;19.00;60.80;;;;;;4953473;29;20394;-85
2022/10/13 03:05:26;;;;;;;43.75;24.92;;;19.10;61.60;;;;;;4953821;29;20491;-85
2022/10/13 03:08:19;;;;;;;35.53;23.02;;;19.20;61.10;;;;;;4953855;28;20024;-84
2022/10/13 03:14:11;;;;;;;36.88;24.05;;;19.10;61.70;;;;;;4934946;29;20074;-84
2022/10/13 03:40:22;;;;;;;40.08;25.50;;;19.00;62.20;;;;;;1118625;22;20299;-82
2022/10/13 03:42:48;;;;;;;44.83;26.55;;;19.20;62.20;;;;;;4995403;28;20062;-84
2022/10/13 03:45:14;;;;;;;48.47;27.95;;;19.20;62.90;;;;;;4994650;28;20049;-83
2022/10/13 03:47:39;;;;;;;38.22;24.35;;;19.40;62.20;;;;;;4996808;28;20018;-84
2022/10/13 03:50:05;;;;;;;34.05;23.48;;;19.30;62.50;;;;;;4983552;28;20113;-85
2022/10/13 03:52:31;;;;;;;33.88;22.60;;;18.90;63.60;;;;;;5004808;28;20064;-83
2022/10/13 03:54:57;;;;;;;36.72;23.52;;;18.30;65.00;;;;;;4999204;28;20124;-84
2022/10/13 03:57:23;;;;;;;39.22;25.48;;;17.60;66.90;;;;;;4996681;28;20105;-83
2022/10/13 03:59:48;;;;;;;43.65;25.92;;;17.60;67.90;;;;;;4999034;28;20041;-83
2022/10/13 04:02:14;;;;;;;36.83;24.48;;;18.00;66.30;;;;;;5012608;28;20033;-83
2022/10/13 04:04:40;;;;;;;32.67;23.40;;;18.60;64.50;;;;;;4999827;28;20030;-84
2022/10/13 04:07:06;;;;;;;37.33;24.58;;;18.50;65.00;;;;;;4986870;28;20018;-83
2022/10/13 04:09:32;;;;;;;39.55;24.65;;;18.20;66.30;;;;;;5017272;28;20040;-82
2022/10/13 04:12:13;;;;;;;34.45;22.95;;;18.40;65.90;;;;;;4999330;28;20034;-82
2022/10/13 04:14:38;;;;;;;31.70;22.25;;;18.30;65.60;;;;;;5005132;28;20026;-82
2022/10/13 04:17:04;;;;;;;30.85;22.40;;;17.70;67.40;;;;;;5019393;28;20025;-85
2022/10/13 04:19:30;;;;;;;35.97;24.40;;;17.40;68.70;;;;;;5036949;28;20040;-84
2022/10/13 04:21:55;;;;;;;43.53;26.98;;;17.40;69.70;;;;;;5036583;28;20032;-82
2022/10/13 04:28:45;;;;;;;48.22;26.23;;;18.70;65.60;;;;;;5036484;28;20415;-83
2022/10/13 04:31:11;;;;;;;51.35;25.83;;;19.20;63.90;;;;;;5011420;28;20484;-86
2022/10/13 04:33:37;;;;;;;59.88;28.23;;;19.40;63.30;;;;;;5035842;28;20025;-84
2022/10/13 04:36:07;;;;;;;71.60;27.73;;;19.60;63.20;;;;;;5034997;28;20083;-84
2022/10/13 04:38:33;;;;;;;53.22;27.35;;;19.80;62.60;;;;;;5034708;28;20535;-85
2022/10/13 04:41:02;;;;;;;39.10;24.98;;;19.90;62.50;;;;;;5032577;28;20038;-85
2022/10/13 04:43:28;;;;;;;51.83;25.92;;;19.60;62.50;;;;;;5036683;28;20365;-83
2022/10/13 04:46:02;;;;;;;68.03;29.70;;;18.80;64.80;;;;;;5035276;28;20032;-86
2022/10/13 04:48:28;;;;;;;64.00;27.92;;;18.50;66.10;;;;;;5031481;28;20428;-83
2022/10/13 04:51:04;;;;;;;47.38;25.42;;;18.90;65.20;;;;;;5016281;28;20033;-84
2022/10/13 04:53:30;;;;;;;36.80;23.38;;;19.20;64.60;;;;;;5014856;28;20025;-82
2022/10/13 04:55:59;;;;;;;39.67;23.60;;;18.90;65.10;;;;;;5015409;28;20018;-84
2022/10/13 04:58:25;;;;;;;35.38;23.65;;;18.40;66.60;;;;;;5014869;28;20057;-82
2022/10/13 05:00:51;;;;;;;68.93;29.23;;;18.00;67.60;;;;;;5015944;28;20026;-82
2022/10/13 05:03:16;;;;;;;92.03;31.70;;;18.00;68.10;;;;;;4998637;28;20409;-83
2022/10/13 05:05:42;;;;;;;73.90;31.27;;;18.50;67.10;;;;;;5022328;28;20029;-82
2022/10/13 05:08:08;;;;;;;62.45;28.95;;;19.00;65.50;;;;;;5018111;28;20116;-84
2022/10/13 05:10:37;;;;;;;54.83;29.65;;;19.20;65.00;;;;;;5024285;28;20124;-83
2022/10/13 05:13:03;;;;;;;101.32;33.55;;;19.40;65.00;;;;;;4998472;28;20492;-86
2022/10/13 05:15:28;;;;;;;55.30;29.50;;;19.60;64.20;;;;;;4997735;28;20069;-83
2022/10/13 05:17:54;;;;;;;40.55;25.13;;;19.80;63.50;;;;;;4998407;28;20026;-84
2022/10/13 05:20:20;;;;;;;95.95;34.13;;;19.90;62.90;;;;;;4997996;28;20044;-83
2022/10/13 05:22:46;;;;;;;67.30;29.77;;;19.70;63.90;;;;;;4997645;28;20465;-86
2022/10/13 05:25:11;;;;;;;57.30;28.77;;;19.80;63.30;;;;;;5015501;28;20097;-83
2022/10/13 05:27:37;;;;;;;68.63;34.55;;;19.80;63.50;;;;;;5015463;28;20036;-84
2022/10/13 05:30:03;;;;;;;73.15;31.17;;;19.40;64.80;;;;;;4997666;28;20037;-85
2022/10/13 05:32:29;;;;;;;140.90;35.17;;;19.50;64.70;;;;;;4997711;28;20432;-87
2022/10/13 05:34:54;;;;;;;60.40;28.02;;;19.70;64.00;;;;;;4997650;28;20164;-88
2022/10/13 05:37:21;;;;;;;73.70;30.45;;;19.80;63.60;;;;;;4997181;28;20049;-87
2022/10/13 05:39:47;;;;;;;115.28;32.42;;;20.00;63.10;;;;;;4994697;28;20042;-85
2022/10/13 05:42:13;;;;;;;106.28;28.50;;;20.00;63.20;;;;;;5007788;28;20041;-85
2022/10/13 05:44:39;;;;;;;101.82;31.55;;;20.20;62.60;;;;;;5014679;28;20104;-86
2022/10/13 05:47:05;;;;;;;37.75;23.45;;;20.20;62.50;;;;;;4996902;28;20026;-87
2022/10/13 05:49:30;;;;;;;34.33;23.45;;;20.00;63.00;;;;;;5014942;28;20467;-80
2022/10/13 05:52:03;;;;;;;41.30;24.98;;;19.30;64.50;;;;;;5015231;28;20022;-87
2022/10/13 05:54:35;;;;;;;43.70;25.20;;;19.00;65.70;;;;;;5014814;28;20032;-87
2022/10/13 05:57:17;;;;;;;35.47;23.30;;;18.80;66.20;;;;;;5014631;28;20026;-85
2022/10/13 05:59:59;;;;;;;55.08;25.48;;;18.50;67.30;;;;;;4997563;28;20099;-85
2022/10/13 06:02:33;;;;;;;38.97;23.52;;;18.70;67.10;;;;;;5014601;28;20022;-87
2022/10/13 06:05:00;;;;;;;62.50;27.50;;;18.60;66.40;;;;;;5024957;28;20451;-87
2022/10/13 06:07:26;;;;;;;79.00;27.15;;;18.80;67.10;;;;;;5014265;28;20025;-87
2022/10/13 06:09:52;;;;;;;113.60;30.48;;;19.10;65.90;;;;;;4997039;28;20022;-83
2022/10/13 06:12:20;;;;;;;54.85;27.25;;;19.40;65.20;;;;;;5014659;28;20021;-85
2022/10/13 06:14:46;;;;;;;31.98;22.10;;;19.70;64.50;;;;;;5013827;28;20038;-86
2022/10/13 06:17:11;;;;;;;68.70;24.75;;;19.80;63.90;;;;;;4997036;28;20106;-85
2022/10/13 06:19:37;;;;;;;105.55;31.95;;;19.50;64.70;;;;;;4996611;28;20033;-83
2022/10/13 06:22:03;;;;;;;32.13;22.83;;;19.70;64.60;;;;;;5014488;28;20022;-84
2022/10/13 06:24:38;;;;;;;32.35;22.42;;;19.90;64.00;;;;;;5013642;28;20377;-87
2022/10/13 06:27:03;;;;;;;54.90;26.27;;;19.80;63.70;;;;;;5004212;28;20485;-85
2022/10/13 06:29:29;;;;;;;47.58;26.38;;;19.80;64.40;;;;;;5011086;28;20030;-86
2022/10/13 06:32:04;;;;;;;50.25;26.55;;;19.90;63.90;;;;;;5014527;28;20030;-88
2022/10/13 06:34:30;;;;;;;28.40;20.08;;;20.00;64.00;;;;;;5011126;28;20030;-87
2022/10/13 06:36:57;;;;;;;32.38;21.33;;;19.70;63.60;;;;;;4994200;28;20102;-86
2022/10/13 06:39:22;;;;;;;28.90;20.20;;;18.90;65.90;;;;;;4999657;28;20117;-87
2022/10/13 06:41:48;;;;;;;35.63;23.65;;;18.20;67.50;;;;;;5029678;28;20052;-86
2022/10/13 06:44:22;;;;;;;31.77;20.92;;;17.80;69.60;;;;;;5005768;28;20112;-86
2022/10/13 06:46:48;;;;;;;38.30;24.67;;;18.10;68.10;;;;;;5011872;28;20036;-86
2022/10/13 06:49:14;;;;;;;61.58;23.67;;;18.40;68.40;;;;;;4997574;28;20022;-84
2022/10/13 06:51:39;;;;;;;34.42;21.85;;;18.60;67.80;;;;;;5013296;28;20022;-86
2022/10/13 06:54:05;;;;;;;31.70;22.58;;;19.10;66.70;;;;;;5013260;28;20524;-89
2022/10/13 06:56:31;;;;;;;31.95;21.70;;;19.10;66.00;;;;;;5014016;28;20113;-87
2022/10/13 06:58:56;;;;;;;39.15;23.90;;;19.10;65.90;;;;;;5012933;28;20197;-87
2022/10/13 07:02:08;;;;;;;44.20;24.52;;;19.50;65.70;;;;;;5013083;28;20032;-87
2022/10/13 07:38:22;;;;;;;46.97;25.45;;;20.20;64.40;;;;;;2150856;23;21763;-82
2022/10/13 07:40:48;;;;;;;36.80;24.15;;;20.30;64.20;;;;;;4954796;29;20050;-86
2022/10/13 07:43:14;;;;;;;36.58;23.15;;;20.40;63.60;;;;;;4947005;28;20031;-85
2022/10/13 08:01:28;;;;;;;35.25;24.45;;;21.60;61.80;;;;;;2381688;23;20304;-82
2022/10/13 08:03:55;;;;;;;33.97;23.03;;;21.50;62.30;;;;;;4927905;28;1215674;-90
2022/10/13 08:06:24;;;;;;;30.48;22.05;;;21.50;62.10;;;;;;4959031;29;20063;-86
2022/10/13 08:08:51;;;;;;;32.03;22.13;;;21.70;61.70;;;;;;4942115;29;20486;-87
2022/10/13 08:11:38;;;;;;;34.75;21.23;;;21.60;60.90;;;;;;4957490;29;20012;-87
2022/10/13 08:14:17;;;;;;;29.60;21.23;;;21.40;60.70;;;;;;4973312;28;20129;-84
2022/10/13 08:16:44;;;;;;;31.02;21.75;;;21.20;61.20;;;;;;4958629;29;20019;-83
2022/10/13 08:19:14;;;;;;;31.83;20.70;;;21.20;61.40;;;;;;4957177;29;20055;-84
2022/10/13 08:21:40;;;;;;;28.38;20.20;;;21.10;61.40;;;;;;4973384;28;20034;-91
2022/10/13 08:24:09;;;;;;;30.85;20.60;;;21.10;61.90;;;;;;4960606;28;20023;-83
2022/10/13 08:26:35;;;;;;;28.02;21.25;;;21.20;61.70;;;;;;4976485;28;20031;-82
2022/10/13 08:29:00;;;;;;;31.08;22.38;;;21.30;61.60;;;;;;4977611;28;20034;-82
2022/10/13 08:31:26;;;;;;;30.30;20.70;;;21.60;61.40;;;;;;4973466;28;20050;-84
2022/10/13 08:33:58;;;;;;;28.05;20.60;;;21.70;60.90;;;;;;4973962;28;20113;-86
2022/10/13 08:36:37;;;;;;;25.80;19.63;;;21.80;60.50;;;;;;4977680;28;20118;-82
2022/10/13 08:39:03;;;;;;;29.40;19.20;;;21.60;60.70;;;;;;4976698;28;20443;-83
2022/10/13 08:41:34;;;;;;;25.17;19.13;;;21.50;60.50;;;;;;4977050;28;20019;-80
2022/10/13 08:44:14;;;;;;;26.45;19.27;;;21.50;60.30;;;;;;4991979;28;20097;-82
2022/10/13 08:47:05;;;;;;;26.95;18.92;;;21.70;60.60;;;;;;4975723;28;20018;-89
2022/10/13 08:49:31;;;;;;;28.23;18.33;;;22.00;60.50;;;;;;4959001;28;20031;-81
2022/10/13 08:51:57;;;;;;;25.38;17.85;;;21.30;60.10;;;;;;4959772;28;20469;-84
2022/10/13 08:54:26;;;;;;;27.95;18.55;;;20.70;62.10;;;;;;5001603;23;20540;-83
2022/10/13 08:56:52;;;;;;;26.15;19.60;;;21.00;62.70;;;;;;4996962;28;20022;-80
2022/10/13 08:59:20;;;;;;;27.70;20.30;;;21.30;62.60;;;;;;4996307;28;20026;-81
2022/10/13 09:01:50;;;;;;;26.48;19.48;;;21.80;62.20;;;;;;4995479;28;20062;-81
2022/10/13 09:04:25;;;;;;;26.58;18.85;;;22.30;60.80;;;;;;4975203;28;20030;-88
2022/10/13 09:07:16;;;;;;;28.10;20.25;;;22.30;60.30;;;;;;4977792;28;20465;-81
2022/10/13 09:09:42;;;;;;;24.00;17.08;;;22.40;60.10;;;;;;4987359;28;20484;-89
2022/10/13 09:12:11;;;;;;;23.73;16.05;;;21.60;59.50;;;;;;4994554;28;20453;-84
2022/10/13 09:14:39;;;;;;;25.15;17.75;;;21.20;59.80;;;;;;4996998;28;20027;-81
2022/10/13 09:17:21;;;;;;;24.33;17.77;;;20.70;61.30;;;;;;4996191;28;20025;-85
2022/10/13 09:19:58;;;;;;;26.35;18.67;;;20.60;63.20;;;;;;4976407;28;20481;-83
2022/10/13 09:22:39;;;;;;;25.48;18.55;;;21.20;62.30;;;;;;4994710;28;20442;-86
2022/10/13 09:25:15;;;;;;;26.00;17.25;;;21.40;61.10;;;;;;4989502;28;20067;-86
2022/10/13 09:27:51;;;;;;;26.88;17.60;;;21.30;60.80;;;;;;4998487;28;20014;-93
2022/10/13 09:30:31;;;;;;;26.90;17.83;;;21.10;62.50;;;;;;4982382;28;20038;-86
2022/10/13 09:33:11;;;;;;;25.48;17.70;;;21.00;62.80;;;;;;5005708;28;20099;-86
2022/10/13 09:36:10;;;;;;;25.45;18.45;;;21.40;61.80;;;;;;4977908;28;20469;-82
2022/10/13 09:38:36;;;;;;;26.45;18.65;;;21.80;61.00;;;;;;4975462;28;20097;-80
2022/10/13 09:41:08;;;;;;;28.02;18.95;;;22.40;59.30;;;;;;4995095;28;20369;-84
2022/10/13 09:43:45;;;;;;;25.58;19.00;;;22.60;58.80;;;;;;4988235;28;20109;-83
2022/10/13 09:46:54;;;;;;;24.35;17.58;;;22.30;59.80;;;;;;4977542;28;20030;-79
2022/10/13 09:49:43;;;;;;;25.58;18.25;;;22.80;58.90;;;;;;4935851;29;20066;-87
2022/10/13 09:52:11;;;;;;;23.77;17.30;;;23.30;57.70;;;;;;4935319;29;20431;-88
2022/10/13 09:54:40;;;;;;;23.20;17.23;;;23.40;57.50;;;;;;4935510;29;20502;-82
2022/10/13 09:57:19;;;;;;;23.83;16.17;;;23.70;57.10;;;;;;4935689;29;20048;-83
2022/10/13 10:00:12;;;;;;;41.80;38.10;;;23.50;57.10;;;;;;4934399;29;20175;-82
2022/10/13 10:03:03;;;;;;;26.67;17.27;;;24.10;56.00;;;;;;4935375;29;20149;-82
2022/10/13 10:05:58;;;;;;;23.13;15.55;;;23.50;56.60;;;;;;4934896;29;20507;-82
2022/10/13 10:08:45;;;;;;;24.13;15.43;;;23.70;56.10;;;;;;4933262;29;20028;-81
2022/10/13 10:11:16;;;;;;;19.67;14.70;;;23.90;56.10;;;;;;4931065;29;20031;-93
2022/10/13 10:13:41;;;;;;;24.30;13.48;;;24.20;55.60;;;;;;4935999;29;20028;-80
2022/10/13 10:16:48;;;;;;;19.63;13.52;;;24.20;55.10;;;;;;4929860;29;20031;-83
2022/10/13 10:19:46;;;;;;;18.23;13.45;;;24.60;55.40;;;;;;4932008;29;20047;-92
2022/10/13 10:22:21;;;;;;;19.35;12.48;;;25.10;54.20;;;;;;4931814;29;20382;-83
2022/10/13 10:25:06;;;;;;;21.80;12.20;;;25.30;53.20;;;;;;4963618;28;20030;-80
2022/10/13 10:27:44;;;;;;;17.38;11.75;;;24.50;52.60;;;;;;5014625;28;20022;-83
2022/10/13 10:30:18;;;;;;;14.70;11.10;;;24.20;55.20;;;;;;4996750;28;20018;-84
2022/10/13 10:33:01;;;;;;;16.77;11.55;;;24.60;54.40;;;;;;4997333;28;20033;-86
2022/10/13 10:35:50;;;;;;;15.02;11.15;;;24.90;53.50;;;;;;5014193;28;20024;-81
2022/10/13 10:38:46;;;;;;;16.63;11.07;;;24.90;53.80;;;;;;5014774;28;20026;-87
2022/10/13 10:41:33;;;;;;;16.00;11.40;;;24.30;53.40;;;;;;5014575;28;20040;-85
2022/10/13 10:44:21;;;;;;;16.60;11.32;;;23.90;54.70;;;;;;4996748;28;20041;-89
2022/10/13 10:46:52;;;;;;;17.00;11.50;;;24.00;54.90;;;;;;4996438;28;20097;-89
2022/10/13 10:49:28;;;;;;;16.38;11.55;;;24.40;55.40;;;;;;5014034;28;20034;-83
2022/10/13 10:51:54;;;;;;;18.50;12.45;;;24.70;54.20;;;;;;5013019;28;20388;-87
2022/10/13 10:54:19;;;;;;;20.20;11.98;;;24.70;53.90;;;;;;5013910;28;20507;-80
2022/10/13 10:57:00;;;;;;;19.13;11.10;;;24.90;54.30;;;;;;4996293;28;20030;-83
2022/10/13 10:59:55;;;;;;;18.15;12.27;;;25.30;54.20;;;;;;4993782;28;20038;-86
2022/10/13 11:02:58;;;;;;;17.42;11.57;;;25.50;53.40;;;;;;4996341;28;20036;-81
2022/10/13 11:05:26;;;;;;;18.63;12.30;;;25.50;53.30;;;;;;4996413;28;20026;-86
2022/10/13 11:07:51;;;;;;;18.77;11.65;;;25.10;53.80;;;;;;5012855;28;20022;-84
2022/10/13 11:10:20;;;;;;;18.42;11.50;;;25.10;54.10;;;;;;4996373;28;20032;-85
2022/10/13 11:12:52;;;;;;;17.63;11.70;;;24.70;53.80;;;;;;5013831;28;20018;-84
2022/10/13 11:15:20;;;;;;;19.65;12.30;;;25.00;55.10;;;;;;4996702;28;20400;-84
2022/10/13 11:17:46;;;;;;;18.40;11.85;;;25.20;54.00;;;;;;4996676;28;20034;-85
2022/10/13 11:20:21;;;;;;;19.17;12.02;;;25.30;54.00;;;;;;4996625;28;20068;-85
2022/10/13 11:22:58;;;;;;;18.10;12.23;;;25.10;54.10;;;;;;5013987;28;20443;-89
2022/10/13 11:25:42;;;;;;;17.42;11.60;;;25.10;53.50;;;;;;4997083;28;20034;-87
2022/10/13 11:28:20;;;;;;;15.43;10.93;;;24.90;54.20;;;;;;4996624;28;20117;-84
2022/10/13 11:31:02;;;;;;;16.30;11.70;;;24.90;54.50;;;;;;4996343;28;20104;-83
2022/10/13 11:33:55;;;;;;;22.02;11.45;;;25.00;54.00;;;;;;4996249;28;20033;-82
2022/10/13 11:36:36;;;;;;;17.17;11.45;;;25.30;53.80;;;;;;4988831;28;20054;-83
2022/10/13 11:39:01;;;;;;;;;;;25.20;53.20;;;;;;4996317;28;20040;-82
2022/10/13 11:41:34;;;;;;;16.95;11.38;;;25.00;54.00;;;;;;5013328;28;19905;-82
2022/10/13 11:44:19;;;;;;;16.73;10.63;;;25.20;53.60;;;;;;4995989;28;20111;-85
2022/10/13 11:47:14;;;;;;;15.30;11.68;;;25.30;53.30;;;;;;4992648;28;20477;-82
2022/10/13 11:49:58;;;;;;;15.85;10.38;;;25.00;53.70;;;;;;5013578;28;20026;-83
2022/10/13 11:52:36;;;;;;;17.90;11.15;;;24.70;52.80;;;;;;4995886;28;20112;-82
2022/10/13 11:55:11;;;;;;;17.08;9.77;;;24.60;53.50;;;;;;4995734;28;20100;-82
2022/10/13 11:57:36;;;;;;;13.85;10.45;;;25.10;53.30;;;;;;4995829;28;20447;-84
2022/10/13 12:00:04;;;;;;;16.92;10.13;;;25.10;53.20;;;;;;4996040;28;20033;-83
2022/10/13 12:02:30;;;;;;;17.77;10.30;;;25.30;52.80;;;;;;4995185;28;20034;-82
2022/10/13 12:05:01;;;;;;;14.63;9.82;;;25.60;52.80;;;;;;4995589;28;20050;-83
2022/10/13 12:07:35;;;;;;;15.43;10.00;;;25.60;51.70;;;;;;4995503;28;20057;-81
2022/10/13 12:10:04;;;;;;;15.27;10.52;;;25.20;52.30;;;;;;4996136;28;20037;-82
2022/10/13 12:12:30;;;;;;;15.07;10.18;;;25.00;53.10;;;;;;4995496;28;20302;-83
2022/10/13 12:14:57;;;;;;;14.25;9.65;;;25.20;53.00;;;;;;5013567;28;20037;-80
2022/10/13 12:17:29;;;;;;;16.48;11.15;;;25.50;52.10;;;;;;4995756;28;20022;-87
2022/10/13 12:19:58;;;;;;;15.27;10.00;;;25.50;51.90;;;;;;4995814;28;20037;-85
2022/10/13 12:22:24;;;;;;;13.95;9.23;;;25.50;52.00;;;;;;4998389;28;20084;-84
2022/10/13 12:25:05;;;;;;;15.82;10.75;;;25.30;52.30;;;;;;4999467;28;20033;-91
2022/10/13 12:27:46;;;;;;;16.48;11.65;;;25.00;52.30;;;;;;4993924;28;20054;-88
2022/10/13 12:30:38;;;;;;;15.07;9.57;;;24.50;53.10;;;;;;4999061;28;20061;-84
2022/10/13 12:33:26;;;;;;;13.25;8.95;;;24.50;53.30;;;;;;4996016;28;20129;-87
2022/10/13 12:35:52;;;;;;;16.95;9.05;;;24.40;53.30;;;;;;5017589;28;20026;-88
2022/10/13 12:38:20;;;;;;;15.77;9.68;;;24.70;53.50;;;;;;4999658;28;20530;-89
2022/10/13 12:40:48;;;;;;;19.55;9.10;;;24.70;52.70;;;;;;5016989;28;20409;-85
2022/10/13 12:43:21;;;;;;;13.85;9.20;;;24.70;53.50;;;;;;4999265;28;20112;-86
2022/10/13 12:45:50;;;;;;;14.90;9.15;;;24.60;53.00;;;;;;4999856;28;20488;-86
2022/10/13 12:48:31;;;;;;;13.50;9.10;;;24.50;53.60;;;;;;4998451;28;20659;-87
2022/10/13 12:51:12;;;;;;;15.70;9.40;;;24.20;53.20;;;;;;4998726;28;20037;-88
2022/10/13 12:53:38;;;;;;;14.45;10.80;;;24.20;53.70;;;;;;4996058;28;20130;-90
2022/10/13 12:56:04;;;;;;;16.10;9.77;;;24.50;53.50;;;;;;4997294;28;20165;-85
2022/10/13 12:58:33;;;;;;;15.18;10.13;;;24.80;53.50;;;;;;5012427;28;20481;-87
2022/10/13 13:01:24;;;;;;;24.30;10.82;;;25.20;52.30;;;;;;5012275;28;20030;-91
2022/10/13 13:03:54;;;;;;;;;;;25.20;52.60;;;;;;4996627;28;20034;-85
2022/10/13 13:06:25;;;;;;;16.13;12.05;;;24.70;53.40;;;;;;4996044;28;19951;-86
2022/10/13 13:09:30;;;;;;;31.92;16.98;;;24.60;53.30;;;;;;4996636;28;20027;-85
2022/10/13 13:12:21;;;;;;;16.90;10.68;;;25.10;52.80;;;;;;4955884;29;20023;-86
2022/10/13 13:14:51;;;;;;;13.63;10.40;;;25.50;52.60;;;;;;4957863;29;20066;-83
2022/10/13 13:17:16;;;;;;;19.33;12.30;;;25.40;52.30;;;;;;4956424;29;20086;-86
2022/10/13 13:20:18;;;;;;;22.00;12.88;;;24.90;53.00;;;;;;4956515;29;20055;-89
2022/10/13 13:22:44;;;;;;;25.10;16.15;;;24.60;53.50;;;;;;4955674;29;20050;-83
2022/10/13 13:25:37;;;;;;;16.70;11.77;;;24.40;54.50;;;;;;4955403;29;20403;-88
2022/10/13 13:31:13;;;;;;;15.52;10.82;;;25.10;53.00;;;;;;4955876;29;20034;-86
2022/10/13 13:33:39;;;;;;;14.48;10.25;;;25.00;53.20;;;;;;4954716;28;20031;-89
2022/10/13 13:36:20;;;;;;;17.08;10.60;;;25.20;53.40;;;;;;4955194;29;20088;-86
2022/10/13 13:38:47;;;;;;;15.60;9.60;;;25.50;53.00;;;;;;4955657;29;20090;-85
2022/10/13 13:41:14;;;;;;;16.08;10.70;;;25.70;53.30;;;;;;4955650;29;20121;-84
2022/10/13 13:43:40;;;;;;;17.08;10.15;;;25.80;52.50;;;;;;4955293;29;20027;-83
2022/10/13 13:46:11;;;;;;;15.63;10.95;;;25.90;52.40;;;;;;4987873;28;20304;-83
2022/10/13 13:48:37;;;;;;;19.63;11.57;;;25.80;52.40;;;;;;4992258;28;20029;-83
2022/10/13 13:51:08;;;;;;;14.05;10.10;;;25.90;52.10;;;;;;5010906;23;20054;-83
2022/10/13 13:53:34;;;;;;;17.13;9.98;;;25.90;52.30;;;;;;4995681;28;20361;-89
2022/10/13 13:55:59;;;;;;;22.90;11.48;;;25.80;52.00;;;;;;4994650;28;20480;-84
2022/10/13 13:58:25;;;;;;;15.48;10.65;;;25.70;52.70;;;;;;4994250;28;20109;-83
2022/10/13 14:00:51;;;;;;;14.70;10.23;;;25.80;52.80;;;;;;4993968;28;20030;-83
2022/10/13 14:03:16;;;;;;;21.85;13.50;;;25.80;52.70;;;;;;4994058;28;20025;-83
2022/10/13 14:05:42;;;;;;;20.60;12.93;;;25.80;52.50;;;;;;4994577;28;20461;-84
2022/10/13 14:08:08;;;;;;;16.17;10.52;;;25.90;52.70;;;;;;4993846;28;20018;-81
2022/10/13 14:10:34;;;;;;;15.10;11.25;;;25.90;52.60;;;;;;4995070;28;20026;-82
2022/10/13 14:12:59;;;;;;;14.32;10.60;;;25.60;53.00;;;;;;4994715;28;20406;-82
2022/10/13 14:15:25;;;;;;;13.23;9.57;;;25.60;53.30;;;;;;4993712;28;20033;-82
2022/10/13 14:17:52;;;;;;;15.77;10.38;;;25.70;53.40;;;;;;4994352;28;20029;-84
2022/10/13 14:20:19;;;;;;;15.43;9.48;;;25.70;54.80;;;;;;4994060;28;20465;-84
2022/10/13 14:22:44;;;;;;;17.38;10.20;;;25.60;55.40;;;;;;4994189;28;20084;-83
2022/10/13 14:25:11;;;;;;;15.90;9.60;;;25.40;54.80;;;;;;4995381;28;20457;-85
2022/10/13 14:27:37;;;;;;;12.32;9.73;;;25.30;54.70;;;;;;4994060;28;20025;-86
2022/10/13 14:30:04;;;;;;;13.20;9.52;;;25.10;56.60;;;;;;5010383;28;20113;-85
2022/10/13 14:32:30;;;;;;;15.70;10.23;;;25.00;56.90;;;;;;4993980;28;20073;-84
2022/10/13 14:34:55;;;;;;;13.60;9.85;;;25.10;56.60;;;;;;4994927;28;20030;-85
2022/10/13 14:37:21;;;;;;;85.55;13.45;;;25.30;55.90;;;;;;4993521;28;20034;-84
2022/10/13 14:39:46;;;;;;;22.20;11.13;;;25.40;55.40;;;;;;4993826;28;20487;-85
2022/10/13 14:42:12;;;;;;;19.10;10.40;;;25.20;55.70;;;;;;4993533;28;20101;-85
2022/10/13 14:44:38;;;;;;;25.92;15.63;;;25.10;56.60;;;;;;4994546;28;20034;-85
2022/10/13 14:47:04;;;;;;;27.58;13.75;;;25.00;55.80;;;;;;4993530;28;20023;-87
2022/10/13 14:49:29;;;;;;;23.33;15.60;;;24.90;56.40;;;;;;4993387;28;20028;-84
2022/10/13 14:51:55;;;;;;;20.33;12.60;;;24.90;56.50;;;;;;4977303;28;20022;-85
2022/10/13 14:54:20;;;;;;;47.20;13.10;;;24.80;57.60;;;;;;4994090;28;20033;-83
2022/10/13 14:56:46;;;;;;;21.40;12.05;;;24.80;57.90;;;;;;4994070;28;20049;-84
2022/10/13 14:59:12;;;;;;;18.98;11.60;;;24.80;58.30;;;;;;4994239;28;20105;-84
2022/10/13 15:01:40;;;;;;;17.77;11.38;;;24.80;57.40;;;;;;4994432;28;20014;-83
2022/10/13 15:04:06;;;;;;;20.73;10.82;;;24.80;56.90;;;;;;4976560;28;20180;-85
2022/10/13 15:06:33;;;;;;;16.88;11.85;;;24.80;57.70;;;;;;4977642;28;20034;-83
2022/10/13 15:08:58;;;;;;;32.60;13.85;;;24.70;58.80;;;;;;4994243;28;20370;-84
2022/10/13 15:11:25;;;;;;;32.75;12.27;;;24.60;58.40;;;;;;4976635;28;20486;-85